Time;durP1;ratioP1;P1;durP2;ratioP2;P2;SDS_P1;SDS_P2;PMS_P1;PMS_P2;Temp;Humidity;BMP_temperature;BMP_pressure;BME280_temperature;BME280_humidity;BME280_pressure;Samples;Min_cycle;Max_cycle;Signal;HPM_P1;HPM_P2
2023/05/21 00:01:44;;;;;;;11.30;7.75;;;15.90;99.90;;;;;;5031430;28;20033;-71
2023/05/21 00:04:11;;;;;;;15.82;7.28;;;15.80;99.90;;;;;;5032514;28;20041;-71
2023/05/21 00:06:37;;;;;;;16.45;7.80;;;15.70;99.90;;;;;;5031876;28;20038;-71
2023/05/21 00:09:04;;;;;;;15.43;7.63;;;15.70;99.90;;;;;;5033322;28;20026;-70
2023/05/21 00:11:30;;;;;;;11.02;6.90;;;15.60;99.90;;;;;;5031865;28;20500;-71
2023/05/21 00:13:56;;;;;;;12.18;6.95;;;15.60;99.90;;;;;;5032210;28;20021;-71
2023/05/21 00:16:22;;;;;;;14.18;6.78;;;15.60;99.90;;;;;;5030411;28;20454;-71
2023/05/21 00:18:48;;;;;;;14.07;7.82;;;15.60;99.90;;;;;;5032419;28;20029;-71
2023/05/21 00:21:16;;;;;;;12.63;7.55;;;15.60;99.90;;;;;;5032892;28;20046;-71
2023/05/21 00:23:47;;;;;;;13.57;7.72;;;15.60;99.90;;;;;;5030486;28;20041;-71
2023/05/21 00:26:13;;;;;;;13.63;8.18;;;15.70;99.90;;;;;;5031172;28;20076;-71
2023/05/21 00:28:39;;;;;;;12.85;7.32;;;15.60;99.90;;;;;;5030274;28;20494;-71
2023/05/21 00:31:05;;;;;;;16.00;8.23;;;15.60;99.90;;;;;;5031690;28;20041;-71
2023/05/21 00:33:31;;;;;;;17.08;7.70;;;15.60;99.90;;;;;;5030725;28;20463;-71
2023/05/21 00:35:57;;;;;;;13.13;7.78;;;15.50;99.90;;;;;;5032563;28;20040;-71
2023/05/21 00:38:26;;;;;;;15.38;8.57;;;15.50;99.90;;;;;;5032063;28;20046;-71
2023/05/21 00:40:52;;;;;;;13.68;8.02;;;15.60;99.90;;;;;;5030235;28;20541;-71
2023/05/21 00:43:19;;;;;;;12.45;8.20;;;15.50;99.90;;;;;;5031500;28;20037;-71
2023/05/21 00:45:46;;;;;;;14.75;8.48;;;15.60;99.90;;;;;;5030286;28;20041;-71
2023/05/21 00:48:13;;;;;;;15.88;8.30;;;15.50;99.90;;;;;;5045348;28;20497;-71
2023/05/21 00:50:40;;;;;;;15.93;8.90;;;15.50;99.90;;;;;;5029621;28;20492;-71
2023/05/21 00:53:09;;;;;;;13.40;8.55;;;15.60;99.90;;;;;;5031238;28;20462;-71
2023/05/21 00:55:36;;;;;;;11.77;7.97;;;15.50;99.90;;;;;;5029486;28;20041;-71
2023/05/21 00:58:03;;;;;;;11.90;7.78;;;15.60;99.90;;;;;;5030255;28;20034;-71
2023/05/21 01:00:33;;;;;;;14.18;8.43;;;15.60;99.90;;;;;;5046093;28;20033;-71
2023/05/21 01:03:02;;;;;;;12.50;8.45;;;15.60;99.90;;;;;;5030216;28;20026;-70
2023/05/21 01:05:28;;;;;;;15.77;8.75;;;15.60;99.90;;;;;;5030726;28;20033;-71
2023/05/21 01:07:54;;;;;;;13.57;8.20;;;15.50;99.90;;;;;;5028756;28;20479;-71
2023/05/21 01:10:21;;;;;;;12.13;8.10;;;15.50;99.90;;;;;;5046969;28;20037;-70
2023/05/21 01:12:47;;;;;;;13.05;8.05;;;15.50;99.90;;;;;;5030649;28;20033;-71
2023/05/21 01:15:13;;;;;;;11.25;8.45;;;15.40;99.90;;;;;;5014132;28;20044;-71
2023/05/21 01:17:40;;;;;;;13.40;8.50;;;15.50;99.90;;;;;;5046228;28;20420;-71
2023/05/21 01:20:09;;;;;;;16.35;8.20;;;15.40;99.90;;;;;;5030782;28;20033;-71
2023/05/21 01:22:40;;;;;;;18.88;9.02;;;15.40;99.90;;;;;;5030164;28;20025;-71
2023/05/21 01:25:07;;;;;;;14.75;8.68;;;15.30;99.90;;;;;;5029631;28;20469;-71
2023/05/21 01:27:33;;;;;;;14.48;8.77;;;15.20;99.90;;;;;;5029735;28;20053;-71
2023/05/21 01:29:59;;;;;;;15.20;8.07;;;15.30;99.90;;;;;;5031057;28;20048;-71
2023/05/21 01:32:28;;;;;;;14.80;8.68;;;15.20;99.90;;;;;;5028612;28;20041;-71
2023/05/21 01:35:34;;;;;;;14.18;8.23;;;15.30;99.90;;;;;;5031374;28;20037;-71
2023/05/21 01:38:12;;;;;;;17.42;8.75;;;15.20;99.90;;;;;;5016808;28;20378;-71
2023/05/21 01:40:45;;;;;;;14.15;8.55;;;15.10;99.90;;;;;;5030148;28;20390;-71
2023/05/21 01:43:11;;;;;;;14.90;8.07;;;15.20;99.90;;;;;;5030666;28;20032;-71
2023/05/21 01:45:39;;;;;;;12.77;8.35;;;15.10;99.90;;;;;;5012759;28;20026;-71
2023/05/21 01:48:06;;;;;;;13.95;7.55;;;15.00;99.90;;;;;;5030364;28;20045;-71
2023/05/21 01:50:32;;;;;;;10.88;7.60;;;14.90;99.90;;;;;;5032248;28;20025;-71
2023/05/21 01:53:02;;;;;;;12.95;7.97;;;14.80;99.90;;;;;;5034199;28;20056;-71
2023/05/21 01:55:30;;;;;;;15.15;7.85;;;14.90;99.90;;;;;;5031868;28;20060;-71
2023/05/21 01:57:56;;;;;;;16.48;8.32;;;14.80;99.90;;;;;;5033253;28;20401;-71
2023/05/21 02:00:23;;;;;;;13.90;7.88;;;14.80;99.90;;;;;;5016086;28;20049;-71
2023/05/21 02:02:49;;;;;;;16.00;7.63;;;14.70;99.90;;;;;;5030488;28;20391;-71
2023/05/21 02:05:15;;;;;;;13.25;8.05;;;14.70;99.90;;;;;;5028252;28;20469;-71
2023/05/21 02:07:42;;;;;;;16.45;7.75;;;14.80;99.90;;;;;;5025838;28;20048;-71
2023/05/21 02:10:09;;;;;;;12.07;7.55;;;14.80;99.90;;;;;;5046017;28;20029;-71
2023/05/21 02:12:35;;;;;;;14.63;7.88;;;14.80;99.90;;;;;;5047834;28;20052;-70
2023/05/21 02:15:01;;;;;;;12.23;7.45;;;14.70;99.90;;;;;;5033936;28;20026;-71
2023/05/21 02:17:32;;;;;;;16.13;8.23;;;14.70;99.90;;;;;;5031782;28;20034;-71
2023/05/21 02:20:10;;;;;;;12.63;7.75;;;14.70;99.90;;;;;;5031868;28;20045;-71
2023/05/21 02:22:46;;;;;;;12.77;7.65;;;14.70;99.90;;;;;;5025419;28;20038;-71
2023/05/21 02:25:14;;;;;;;12.57;7.93;;;14.60;99.90;;;;;;5033125;28;20037;-71
2023/05/21 02:27:41;;;;;;;13.07;7.63;;;14.50;99.90;;;;;;5033875;28;20068;-71
2023/05/21 02:30:10;;;;;;;18.15;8.07;;;14.50;99.90;;;;;;5032972;28;20026;-71
2023/05/21 02:32:38;;;;;;;12.88;7.50;;;14.40;99.90;;;;;;5030731;28;20052;-71
2023/05/21 02:35:04;;;;;;;16.50;7.95;;;14.40;99.90;;;;;;5031971;28;20017;-72
2023/05/21 02:37:32;;;;;;;16.60;8.73;;;14.60;99.90;;;;;;5032536;28;20034;-71
2023/05/21 02:39:59;;;;;;;13.25;8.52;;;14.60;99.90;;;;;;5033125;28;20030;-71
2023/05/21 02:42:25;;;;;;;13.20;7.57;;;14.70;99.90;;;;;;5032832;28;20026;-71
2023/05/21 02:44:51;;;;;;;14.80;7.68;;;14.70;99.90;;;;;;5034447;28;20025;-71
2023/05/21 02:47:18;;;;;;;11.95;7.65;;;14.60;99.90;;;;;;5030735;28;20049;-71
2023/05/21 02:49:45;;;;;;;12.18;7.50;;;14.70;99.90;;;;;;5033575;28;20084;-71
2023/05/21 02:52:11;;;;;;;14.55;7.70;;;14.80;99.90;;;;;;5032546;28;20516;-72
2023/05/21 02:54:37;;;;;;;14.82;7.60;;;14.60;99.90;;;;;;5032741;28;20033;-71
2023/05/21 02:57:03;;;;;;;16.83;7.90;;;14.60;99.90;;;;;;5031827;28;20032;-71
2023/05/21 02:59:29;;;;;;;12.65;7.65;;;14.60;99.90;;;;;;5034141;28;20033;-71
2023/05/21 03:01:55;;;;;;;16.02;7.85;;;14.60;99.90;;;;;;5031118;28;20033;-71
2023/05/21 03:04:21;;;;;;;17.95;7.88;;;14.60;99.90;;;;;;5033412;28;20033;-71
2023/05/21 03:06:50;;;;;;;15.55;7.63;;;14.50;99.90;;;;;;5033627;28;20045;-71
2023/05/21 03:09:16;;;;;;;10.98;7.38;;;14.50;99.90;;;;;;5033212;28;20029;-71
2023/05/21 03:11:42;;;;;;;15.35;7.85;;;14.50;99.90;;;;;;5034267;28;20033;-71
2023/05/21 03:14:09;;;;;;;15.18;8.00;;;14.40;99.90;;;;;;5034521;28;20038;-71
2023/05/21 03:16:35;;;;;;;13.15;7.22;;;14.40;99.90;;;;;;5032646;28;20036;-71
2023/05/21 03:19:01;;;;;;;13.95;8.10;;;14.40;99.90;;;;;;5031828;28;20042;-71
2023/05/21 03:21:28;;;;;;;16.75;7.47;;;14.40;99.90;;;;;;5033476;28;20025;-72
2023/05/21 03:23:58;;;;;;;11.32;7.65;;;14.30;99.90;;;;;;5032420;28;20033;-71
2023/05/21 03:26:28;;;;;;;13.52;7.45;;;14.30;99.90;;;;;;5028942;28;20025;-71
2023/05/21 03:28:55;;;;;;;15.05;7.97;;;14.40;99.90;;;;;;5030257;28;20049;-71
2023/05/21 03:31:22;;;;;;;16.35;7.68;;;14.30;99.90;;;;;;5029808;28;20026;-71
2023/05/21 03:33:49;;;;;;;16.15;7.95;;;14.30;99.90;;;;;;5031904;28;20033;-71
2023/05/21 03:36:15;;;;;;;14.90;7.93;;;14.30;99.90;;;;;;5048866;28;20033;-71
2023/05/21 03:38:41;;;;;;;18.70;7.63;;;14.20;99.90;;;;;;5033660;28;20068;-71
2023/05/21 03:41:07;;;;;;;17.67;7.50;;;14.10;99.90;;;;;;5033508;28;20034;-71
2023/05/21 03:43:33;;;;;;;11.57;7.55;;;14.10;99.90;;;;;;5032990;28;20382;-71
2023/05/21 03:45:59;;;;;;;12.27;7.38;;;14.10;99.90;;;;;;5031504;28;20049;-71
2023/05/21 03:48:25;;;;;;;14.65;7.68;;;14.00;99.90;;;;;;5055157;28;20068;-71
2023/05/21 03:50:51;;;;;;;15.20;7.38;;;14.00;99.90;;;;;;5028017;28;20050;-71
2023/05/21 03:53:17;;;;;;;11.70;7.70;;;14.00;99.90;;;;;;5028536;28;20363;-71
2023/05/21 03:55:44;;;;;;;12.32;7.22;;;14.10;99.90;;;;;;5032545;28;20057;-71
2023/05/21 03:58:10;;;;;;;15.10;8.10;;;14.00;99.90;;;;;;5033380;28;20030;-71
2023/05/21 04:00:36;;;;;;;14.63;7.78;;;14.00;99.90;;;;;;5033145;28;20397;-71
2023/05/21 04:03:05;;;;;;;12.38;7.40;;;14.00;99.90;;;;;;5032047;28;20059;-71
2023/05/21 04:05:32;;;;;;;14.93;7.43;;;14.10;99.90;;;;;;5031028;28;20048;-71
2023/05/21 04:07:59;;;;;;;17.02;7.68;;;14.10;99.90;;;;;;5032743;28;20052;-71
2023/05/21 04:10:25;;;;;;;11.52;7.32;;;14.00;99.90;;;;;;5047904;28;20029;-71
2023/05/21 04:12:51;;;;;;;10.52;7.07;;;14.00;99.90;;;;;;5032930;28;20033;-71
2023/05/21 04:15:18;;;;;;;14.73;7.65;;;13.80;99.90;;;;;;5032513;28;20038;-71
2023/05/21 04:17:44;;;;;;;16.33;7.65;;;13.90;99.90;;;;;;5032655;28;20328;-71
2023/05/21 04:20:12;;;;;;;11.18;7.32;;;13.80;99.90;;;;;;5032176;28;20044;-71
2023/05/21 04:22:39;;;;;;;16.60;7.90;;;13.80;99.90;;;;;;5024094;28;20033;-71
2023/05/21 04:25:05;;;;;;;13.15;7.28;;;13.70;99.90;;;;;;5030972;28;20044;-72
2023/05/21 04:27:31;;;;;;;17.85;8.20;;;13.60;99.90;;;;;;5049566;28;20057;-71
2023/05/21 04:29:57;;;;;;;16.60;7.68;;;13.60;99.90;;;;;;5052853;28;20040;-72
2023/05/21 04:32:23;;;;;;;13.15;7.47;;;13.70;99.90;;;;;;5032016;28;20041;-71
2023/05/21 04:34:49;;;;;;;17.15;7.88;;;13.70;99.90;;;;;;5031661;28;20029;-73
2023/05/21 04:37:18;;;;;;;12.57;7.45;;;13.70;99.90;;;;;;5032017;28;20049;-71
2023/05/21 04:39:45;;;;;;;18.05;8.02;;;13.80;99.90;;;;;;5032822;28;20033;-73
2023/05/21 04:42:11;;;;;;;13.50;7.07;;;13.90;99.90;;;;;;5031386;28;20056;-74
2023/05/21 04:44:39;;;;;;;15.98;7.38;;;13.80;99.90;;;;;;5032605;28;20390;-71
2023/05/21 04:47:06;;;;;;;11.13;7.20;;;13.80;99.90;;;;;;5033766;28;20060;-74
2023/05/21 04:49:33;;;;;;;11.98;7.43;;;13.80;99.90;;;;;;5051254;28;20049;-73
2023/05/21 04:52:01;;;;;;;10.98;6.57;;;13.80;99.90;;;;;;5032176;28;20037;-73
2023/05/21 04:54:27;;;;;;;13.93;7.20;;;13.80;99.90;;;;;;5030744;28;20041;-73
2023/05/21 04:56:53;;;;;;;18.98;11.43;;;13.80;99.90;;;;;;5032235;28;20033;-73
2023/05/21 04:59:20;;;;;;;14.85;9.95;;;13.70;99.90;;;;;;5031255;28;20600;-73
2023/05/21 05:01:46;;;;;;;15.93;10.77;;;13.80;99.90;;;;;;5031438;28;20025;-71
2023/05/21 05:04:12;;;;;;;17.70;9.63;;;13.70;99.90;;;;;;5031136;28;20487;-71
2023/05/21 05:06:38;;;;;;;20.02;9.32;;;13.70;99.90;;;;;;5030631;28;20036;-71
2023/05/21 05:09:04;;;;;;;17.25;10.23;;;13.70;99.90;;;;;;5032393;28;20490;-71
2023/05/21 05:11:30;;;;;;;17.63;10.75;;;13.60;99.90;;;;;;5031997;28;20030;-71
2023/05/21 05:13:56;;;;;;;16.60;8.70;;;13.60;99.90;;;;;;5032373;28;20117;-70
2023/05/21 05:16:26;;;;;;;16.95;9.68;;;13.50;99.90;;;;;;5030176;28;20045;-70
2023/05/21 05:18:52;;;;;;;17.45;8.38;;;13.50;99.90;;;;;;5030174;28;20089;-71
2023/05/21 05:21:20;;;;;;;16.27;7.90;;;13.60;99.90;;;;;;5030587;28;20034;-71
2023/05/21 05:23:46;;;;;;;19.63;8.45;;;13.60;99.90;;;;;;5013144;28;20381;-71
2023/05/21 05:26:12;;;;;;;13.45;7.88;;;13.80;99.90;;;;;;5031000;28;20481;-73
2023/05/21 05:28:38;;;;;;;20.75;10.85;;;13.80;99.90;;;;;;5030913;28;20044;-73
2023/05/21 05:31:05;;;;;;;20.33;9.57;;;13.90;99.90;;;;;;5031011;28;20029;-73
2023/05/21 05:33:31;;;;;;;15.13;8.55;;;14.00;99.90;;;;;;5029864;28;20061;-73
2023/05/21 05:35:57;;;;;;;15.93;8.52;;;14.10;99.90;;;;;;5030786;28;20041;-73
2023/05/21 05:38:24;;;;;;;17.17;8.27;;;14.10;99.90;;;;;;5032140;28;20038;-73
2023/05/21 05:40:50;;;;;;;16.23;9.43;;;14.20;99.90;;;;;;5030689;28;20401;-73
2023/05/21 05:43:17;;;;;;;15.45;9.13;;;14.30;99.90;;;;;;5029084;28;20037;-73
2023/05/21 05:45:43;;;;;;;14.85;8.30;;;14.40;99.90;;;;;;5033033;28;20034;-72
2023/05/21 05:48:09;;;;;;;20.10;10.55;;;14.40;99.90;;;;;;5041237;28;20052;-73
2023/05/21 05:50:35;;;;;;;13.32;7.63;;;14.40;99.90;;;;;;5031052;28;20504;-73
2023/05/21 05:53:01;;;;;;;17.08;9.02;;;14.60;99.90;;;;;;5031931;28;20026;-73
2023/05/21 05:55:27;;;;;;;12.15;7.93;;;14.60;99.90;;;;;;5031344;28;20029;-73
2023/05/21 05:57:53;;;;;;;13.77;7.80;;;14.80;99.90;;;;;;5027368;28;20033;-73
2023/05/21 06:00:19;;;;;;;15.57;8.13;;;14.90;99.90;;;;;;5030908;28;20401;-72
2023/05/21 06:02:46;;;;;;;15.52;9.15;;;15.00;99.90;;;;;;5031782;28;20025;-73
2023/05/21 06:05:12;;;;;;;18.73;9.35;;;15.10;99.90;;;;;;5029730;28;20028;-73
2023/05/21 06:07:39;;;;;;;14.23;8.27;;;15.30;99.90;;;;;;5031528;28;20037;-73
2023/05/21 06:10:08;;;;;;;17.27;12.23;;;15.40;99.90;;;;;;5026904;28;20033;-73
2023/05/21 06:12:34;;;;;;;14.20;9.07;;;15.40;99.90;;;;;;5026395;28;20064;-73
2023/05/21 06:15:00;;;;;;;17.52;9.20;;;15.30;99.90;;;;;;5020361;28;20033;-72
2023/05/21 06:17:26;;;;;;;17.73;8.10;;;15.30;99.90;;;;;;5031051;28;20422;-72
2023/05/21 06:19:52;;;;;;;11.05;7.53;;;15.30;99.90;;;;;;5017944;28;20033;-73
2023/05/21 06:22:18;;;;;;;15.75;8.35;;;15.30;99.90;;;;;;5028739;28;20382;-73
2023/05/21 06:24:45;;;;;;;19.00;8.05;;;15.20;99.90;;;;;;5029193;28;20037;-73
2023/05/21 06:27:11;;;;;;;13.65;8.65;;;15.10;99.90;;;;;;5027474;28;20040;-73
2023/05/21 06:29:37;;;;;;;17.70;8.60;;;15.10;99.90;;;;;;5023661;28;20483;-73
2023/05/21 06:32:04;;;;;;;18.02;9.00;;;15.00;99.90;;;;;;5024300;28;20049;-73
2023/05/21 06:34:30;;;;;;;12.70;8.48;;;14.90;99.90;;;;;;5030672;28;20048;-72
2023/05/21 06:36:56;;;;;;;16.15;8.48;;;14.80;99.90;;;;;;5032763;28;20029;-74
2023/05/21 06:39:23;;;;;;;14.38;8.57;;;14.90;99.90;;;;;;5034151;28;20028;-72
2023/05/21 06:41:49;;;;;;;14.38;8.32;;;14.90;99.90;;;;;;5034383;28;20049;-72
2023/05/21 06:44:15;;;;;;;14.95;7.80;;;15.00;99.90;;;;;;5033957;28;20363;-72
2023/05/21 06:46:42;;;;;;;14.20;8.13;;;14.90;99.90;;;;;;5034736;28;20060;-72
2023/05/21 06:49:08;;;;;;;20.63;8.75;;;15.00;99.90;;;;;;5037821;28;20037;-71
2023/05/21 06:51:34;;;;;;;15.73;8.10;;;15.00;99.90;;;;;;5032718;28;20021;-73
2023/05/21 06:54:00;;;;;;;18.15;9.13;;;15.10;99.90;;;;;;5034175;28;20044;-72
2023/05/21 06:56:26;;;;;;;13.90;8.27;;;15.20;99.90;;;;;;5032840;28;20026;-72
2023/05/21 06:58:53;;;;;;;16.83;8.63;;;15.20;99.90;;;;;;5027246;28;20050;-72
2023/05/21 07:01:21;;;;;;;13.90;8.27;;;15.40;99.90;;;;;;5021642;28;20671;-72
2023/05/21 07:03:47;;;;;;;15.35;8.88;;;15.60;99.90;;;;;;5034112;28;20033;-72
2023/05/21 07:06:13;;;;;;;15.30;8.73;;;15.80;99.90;;;;;;5049199;28;20046;-72
2023/05/21 07:08:39;;;;;;;12.18;6.72;;;15.80;99.90;;;;;;5033054;28;20060;-72
2023/05/21 07:11:05;;;;;;;16.02;9.48;;;15.80;99.90;;;;;;5034006;28;20037;-73
2023/05/21 07:13:31;;;;;;;12.98;7.85;;;15.60;99.90;;;;;;5033993;28;20040;-73
2023/05/21 07:15:57;;;;;;;17.10;9.70;;;15.50;99.90;;;;;;5032418;28;20042;-73
2023/05/21 07:18:24;;;;;;;16.25;9.23;;;15.50;99.90;;;;;;5034319;28;20029;-73
2023/05/21 07:20:50;;;;;;;16.75;10.00;;;15.60;99.90;;;;;;5034385;28;20488;-72
2023/05/21 07:23:16;;;;;;;12.55;8.68;;;15.70;99.90;;;;;;5033919;28;20037;-73
2023/05/21 07:25:42;;;;;;;17.35;8.90;;;15.70;99.90;;;;;;5033123;28;20503;-73
2023/05/21 07:28:08;;;;;;;16.75;9.75;;;15.80;99.90;;;;;;5033095;28;20041;-72
2023/05/21 07:30:34;;;;;;;20.70;10.00;;;16.00;99.90;;;;;;5033088;28;20494;-72
2023/05/21 07:33:00;;;;;;;17.98;11.00;;;16.10;99.90;;;;;;5034059;28;20036;-72
2023/05/21 07:35:26;;;;;;;13.77;9.48;;;16.30;99.90;;;;;;5031030;28;20394;-72
2023/05/21 07:37:52;;;;;;;15.80;10.88;;;16.40;99.90;;;;;;5032103;28;20037;-73
2023/05/21 07:40:19;;;;;;;21.70;11.38;;;16.50;99.90;;;;;;5019552;28;20487;-73
2023/05/21 07:42:45;;;;;;;16.67;10.65;;;16.70;99.90;;;;;;5031884;28;20025;-71
2023/05/21 07:45:11;;;;;;;19.58;12.05;;;16.90;99.90;;;;;;5029813;28;20021;-71
2023/05/21 07:47:37;;;;;;;20.23;10.73;;;16.90;99.90;;;;;;5041242;28;20049;-74
2023/05/21 07:50:04;;;;;;;18.25;10.75;;;17.00;99.90;;;;;;5053261;28;20041;-73
2023/05/21 07:52:30;;;;;;;16.05;10.70;;;17.20;99.90;;;;;;5032975;28;20052;-72
2023/05/21 07:54:56;;;;;;;16.95;10.88;;;17.40;99.90;;;;;;5030309;28;20033;-72
2023/05/21 07:57:22;;;;;;;17.42;11.93;;;17.60;99.90;;;;;;5032984;28;20037;-72
2023/05/21 07:59:48;;;;;;;19.77;12.05;;;17.60;99.90;;;;;;5033820;28;20041;-71
2023/05/21 08:02:15;;;;;;;18.08;11.40;;;17.40;99.90;;;;;;5030220;28;20406;-72
2023/05/21 08:04:41;;;;;;;17.25;10.55;;;17.40;99.90;;;;;;5032363;28;20045;-72
2023/05/21 08:07:08;;;;;;;16.10;11.32;;;17.30;99.90;;;;;;5032999;28;20501;-72
2023/05/21 08:09:34;;;;;;;14.10;11.85;;;17.40;99.90;;;;;;5033137;28;20069;-72
2023/05/21 08:12:00;;;;;;;15.75;11.40;;;17.40;99.90;;;;;;5032074;28;20106;-72
2023/05/21 08:14:26;;;;;;;15.98;12.20;;;17.40;99.90;;;;;;5032146;28;20037;-72
2023/05/21 08:16:52;;;;;;;17.42;11.27;;;17.50;99.90;;;;;;5032591;28;20041;-72
2023/05/21 08:19:19;;;;;;;14.98;10.30;;;17.70;99.90;;;;;;5032988;28;20045;-72
2023/05/21 08:21:45;;;;;;;18.08;11.95;;;17.80;99.90;;;;;;5032583;28;20041;-72
2023/05/21 08:24:11;;;;;;;7.60;6.72;;;17.70;99.90;;;;;;5031936;28;20029;-72
2023/05/21 08:26:37;;;;;;;13.60;9.10;;;17.80;99.90;;;;;;5031003;28;20022;-72
2023/05/21 08:29:03;;;;;;;17.10;12.32;;;17.80;99.90;;;;;;5032498;28;20398;-72
2023/05/21 08:31:29;;;;;;;19.90;12.60;;;17.90;99.90;;;;;;5031663;28;20037;-72
2023/05/21 08:33:55;;;;;;;17.92;12.07;;;18.00;99.90;;;;;;5030010;28;20382;-72
2023/05/21 08:36:21;;;;;;;20.23;12.32;;;18.00;99.90;;;;;;5023173;28;20033;-72
2023/05/21 08:38:47;;;;;;;17.17;11.45;;;17.90;99.90;;;;;;5012383;28;20030;-72
2023/05/21 08:41:13;;;;;;;18.55;12.40;;;17.80;99.90;;;;;;5022944;28;20026;-72
2023/05/21 08:43:40;;;;;;;15.25;11.93;;;17.90;99.90;;;;;;5018126;28;20037;-72
2023/05/21 08:46:07;;;;;;;15.82;12.00;;;17.90;99.90;;;;;;5026119;28;20045;-73
2023/05/21 08:48:33;;;;;;;15.40;12.20;;;17.80;99.90;;;;;;5033707;28;20126;-73
2023/05/21 08:51:00;;;;;;;17.00;12.40;;;17.80;99.90;;;;;;5030990;28;20040;-72
2023/05/21 08:53:26;;;;;;;19.73;12.82;;;17.80;99.90;;;;;;5030142;28;20045;-73
2023/05/21 08:55:52;;;;;;;15.82;12.40;;;17.80;99.90;;;;;;5031854;28;20045;-72
2023/05/21 08:58:18;;;;;;;15.05;12.43;;;17.80;99.90;;;;;;5031965;28;20030;-72
2023/05/21 09:00:45;;;;;;;16.42;13.18;;;17.80;99.90;;;;;;5029674;28;20405;-72
2023/05/21 09:03:12;;;;;;;16.98;13.25;;;17.80;99.90;;;;;;5031929;28;20030;-72
2023/05/21 09:05:42;;;;;;;15.73;11.73;;;17.80;99.90;;;;;;5013507;28;20029;-72
2023/05/21 09:08:28;;;;;;;17.92;12.40;;;17.90;99.90;;;;;;5030127;28;20045;-72
2023/05/21 09:10:54;;;;;;;18.85;12.43;;;17.80;99.90;;;;;;5030449;28;20080;-72
2023/05/21 09:13:21;;;;;;;14.50;11.23;;;17.80;99.90;;;;;;5031986;28;20470;-72
2023/05/21 09:15:47;;;;;;;14.88;10.57;;;17.80;99.90;;;;;;5031093;28;20049;-72
2023/05/21 09:18:13;;;;;;;14.48;11.90;;;17.90;99.90;;;;;;5028813;28;20036;-72
2023/05/21 09:20:40;;;;;;;16.63;11.60;;;17.90;99.90;;;;;;5030125;28;20037;-72
2023/05/21 09:23:15;;;;;;;21.60;12.60;;;18.00;99.90;;;;;;5031476;28;20233;-72
2023/05/21 09:25:45;;;;;;;18.27;11.57;;;18.00;99.90;;;;;;5031285;28;20493;-72
2023/05/21 09:28:12;;;;;;;15.70;13.07;;;18.10;99.90;;;;;;5030013;28;20038;-73
2023/05/21 09:30:49;;;;;;;14.93;12.00;;;18.10;99.90;;;;;;5031165;28;20029;-72
2023/05/21 09:33:28;;;;;;;17.58;11.48;;;18.10;99.90;;;;;;5030376;28;20044;-72
2023/05/21 09:35:54;;;;;;;16.58;12.85;;;18.10;99.90;;;;;;5029342;28;20033;-73
2023/05/21 09:38:26;;;;;;;13.38;10.88;;;18.10;99.90;;;;;;5029815;28;20044;-70
2023/05/21 09:40:56;;;;;;;16.00;12.18;;;18.00;99.90;;;;;;5029226;28;20394;-73
2023/05/21 09:43:22;;;;;;;15.60;11.70;;;18.10;99.90;;;;;;5031221;28;20041;-73
2023/05/21 09:45:52;;;;;;;16.40;11.98;;;18.20;99.90;;;;;;5030812;28;20040;-71
2023/05/21 09:48:39;;;;;;;15.05;11.38;;;18.30;99.90;;;;;;5045642;28;20033;-70
2023/05/21 09:51:09;;;;;;;17.48;12.43;;;18.50;99.90;;;;;;5032062;28;20044;-73
2023/05/21 09:53:35;;;;;;;15.45;12.15;;;18.40;99.90;;;;;;5031824;28;20033;-70
2023/05/21 09:56:02;;;;;;;14.13;11.75;;;18.50;99.90;;;;;;5026485;28;20569;-70
2023/05/21 09:58:28;;;;;;;13.82;12.38;;;18.50;99.90;;;;;;5026998;28;20038;-71
2023/05/21 10:00:54;;;;;;;16.08;13.52;;;18.50;99.90;;;;;;5027468;28;20037;-71
2023/05/21 10:03:22;;;;;;;19.30;12.32;;;18.50;99.90;;;;;;5029028;28;20033;-73
2023/05/21 10:05:48;;;;;;;15.65;11.88;;;18.50;99.90;;;;;;5029512;28;20052;-71
2023/05/21 10:08:14;;;;;;;13.57;12.18;;;18.60;99.90;;;;;;5030502;28;20044;-71
2023/05/21 10:10:40;;;;;;;13.23;11.82;;;18.80;99.90;;;;;;5029239;28;20065;-71
2023/05/21 10:13:08;;;;;;;16.48;13.52;;;18.90;99.90;;;;;;5034838;28;20025;-70
2023/05/21 10:15:39;;;;;;;15.02;12.88;;;19.00;99.90;;;;;;5033332;28;20030;-71
2023/05/21 10:18:05;;;;;;;16.55;12.63;;;19.30;99.90;;;;;;5034040;28;20029;-71
2023/05/21 10:20:32;;;;;;;15.05;10.88;;;19.50;99.90;;;;;;5032919;28;20034;-71
2023/05/21 10:22:58;;;;;;;19.05;12.07;;;19.60;99.90;;;;;;5034166;28;20371;-71
2023/05/21 10:25:24;;;;;;;16.33;12.07;;;19.70;99.90;;;;;;5033422;28;20037;-71
2023/05/21 10:27:51;;;;;;;16.20;12.20;;;19.80;99.90;;;;;;5015645;28;20034;-71
2023/05/21 10:30:17;;;;;;;12.85;11.20;;;19.90;99.90;;;;;;5032803;28;20041;-71
2023/05/21 10:32:43;;;;;;;13.77;12.00;;;19.80;99.90;;;;;;5033213;28;20410;-71
2023/05/21 10:35:09;;;;;;;12.90;11.52;;;19.90;99.90;;;;;;5031184;28;20037;-72
2023/05/21 10:37:35;;;;;;;14.85;11.63;;;19.80;99.90;;;;;;5034000;28;20025;-71
2023/05/21 10:40:03;;;;;;;16.65;11.55;;;19.90;99.90;;;;;;5033051;28;20034;-72
2023/05/21 10:42:32;;;;;;;16.23;11.48;;;20.10;99.90;;;;;;5033889;28;20022;-71
2023/05/21 10:45:25;;;;;;;11.82;9.98;;;20.30;99.90;;;;;;5033918;28;20041;-72
2023/05/21 10:48:03;;;;;;;11.48;10.27;;;20.30;99.90;;;;;;5064745;28;20050;-73
2023/05/21 10:50:50;;;;;;;11.52;10.32;;;20.50;99.90;;;;;;5033880;28;20045;-71
2023/05/21 10:53:35;;;;;;;11.10;9.95;;;20.60;99.90;;;;;;5032526;28;20030;-71
2023/05/21 10:56:27;;;;;;;14.10;10.25;;;20.80;99.90;;;;;;5032969;28;20033;-71
2023/05/21 10:59:10;;;;;;;11.02;9.63;;;20.80;99.90;;;;;;5033491;28;20026;-71
2023/05/21 11:01:37;;;;;;;21.50;10.88;;;20.80;99.90;;;;;;5031474;28;20038;-71
2023/05/21 11:04:04;;;;;;;13.70;9.88;;;21.00;99.90;;;;;;5015901;28;20037;-71
2023/05/21 11:06:30;;;;;;;11.60;10.40;;;21.00;99.90;;;;;;5033817;28;20072;-71
2023/05/21 11:09:01;;;;;;;14.63;11.60;;;21.00;99.90;;;;;;5032575;28;20049;-71
2023/05/21 11:11:48;;;;;;;14.18;11.23;;;21.00;99.90;;;;;;5032191;28;20037;-71
2023/05/21 11:14:34;;;;;;;11.95;9.75;;;20.90;99.90;;;;;;5032844;28;20033;-71
2023/05/21 11:17:37;;;;;;;11.43;10.40;;;20.80;99.90;;;;;;5032854;28;20041;-71
2023/05/21 11:20:07;;;;;;;11.32;10.10;;;20.70;99.90;;;;;;5026352;28;20505;-71
2023/05/21 11:22:34;;;;;;;8.63;7.83;;;20.80;99.90;;;;;;5031051;28;20033;-71
2023/05/21 11:25:01;;;;;;;9.30;8.35;;;20.90;99.90;;;;;;5033633;28;20620;-71
2023/05/21 11:27:34;;;;;;;9.50;8.43;;;21.30;99.90;;;;;;5033901;28;20045;-71
2023/05/21 11:30:07;;;;;;;10.38;8.23;;;21.50;99.90;;;;;;5033814;28;20038;-72
2023/05/21 11:32:38;;;;;;;10.30;8.60;;;21.70;99.90;;;;;;5030922;28;20030;-71
2023/05/21 11:35:05;;;;;;;9.10;8.20;;;21.80;99.90;;;;;;5031900;28;20052;-71
2023/05/21 11:37:33;;;;;;;12.40;8.65;;;21.70;99.90;;;;;;5032320;28;20037;-71
2023/05/21 11:40:18;;;;;;;9.30;8.50;;;21.70;99.90;;;;;;5033451;28;20408;-71
2023/05/21 11:42:48;;;;;;;10.13;9.05;;;21.70;99.90;;;;;;5059513;28;20410;-71
2023/05/21 11:45:19;;;;;;;10.98;9.02;;;21.70;99.90;;;;;;5017361;28;20028;-72
2023/05/21 11:47:47;;;;;;;10.35;9.27;;;21.80;99.90;;;;;;5042844;28;20120;-72
2023/05/21 11:50:14;;;;;;;10.60;9.32;;;21.90;99.90;;;;;;5051181;28;20053;-72
2023/05/21 11:52:41;;;;;;;10.20;9.20;;;21.90;99.90;;;;;;5032033;28;20505;-72
2023/05/21 11:55:07;;;;;;;10.95;9.88;;;22.00;99.90;;;;;;5031903;28;20429;-72
2023/05/21 11:57:33;;;;;;;13.80;9.57;;;22.00;99.90;;;;;;5032584;28;20029;-71
2023/05/21 12:00:01;;;;;;;10.77;9.27;;;22.00;99.90;;;;;;5031824;28;20034;-71
2023/05/21 12:02:30;;;;;;;12.25;8.68;;;22.10;99.90;;;;;;5045984;28;20247;-71
2023/05/21 12:04:59;;;;;;;9.20;8.27;;;22.10;99.90;;;;;;5032665;28;20025;-71
2023/05/21 12:07:29;;;;;;;9.40;8.40;;;22.10;99.90;;;;;;5063293;28;20042;-70
2023/05/21 12:09:56;;;;;;;11.48;8.32;;;22.10;99.90;;;;;;5032560;28;20517;-71
2023/05/21 12:12:24;;;;;;;12.65;8.98;;;22.20;99.90;;;;;;5032081;28;20482;-70
2023/05/21 12:14:51;;;;;;;11.98;10.77;;;22.40;99.90;;;;;;5032925;28;20560;-70
2023/05/21 12:17:22;;;;;;;10.23;9.18;;;22.70;99.90;;;;;;5031911;28;20044;-70
2023/05/21 12:19:49;;;;;;;13.23;9.90;;;22.90;99.90;;;;;;5031706;28;20037;-70
2023/05/21 12:22:15;;;;;;;11.20;10.05;;;22.90;99.90;;;;;;5031613;28;20032;-71
2023/05/21 12:24:42;;;;;;;12.05;10.70;;;23.00;99.90;;;;;;5031332;28;20481;-71
2023/05/21 12:27:09;;;;;;;10.85;9.82;;;23.00;99.90;;;;;;5033368;28;20048;-71
2023/05/21 12:29:38;;;;;;;11.20;10.23;;;23.00;99.90;;;;;;5031471;28;20037;-71
2023/05/21 12:32:07;;;;;;;11.63;10.57;;;23.10;99.90;;;;;;5029548;28;20044;-71
2023/05/21 12:34:49;;;;;;;12.60;11.30;;;23.30;99.90;;;;;;5031059;28;20482;-71
2023/05/21 12:37:16;;;;;;;12.95;11.82;;;23.40;99.90;;;;;;5015468;28;20061;-71